createdAt,value
2023-03-13T00:01:42.562Z,98015.09
2023-03-13T00:04:10.587Z,98009.72
2023-03-13T00:06:39.906Z,98008.28
2023-03-13T00:09:08.940Z,98002.63
2023-03-13T00:11:37.085Z,98005.13
2023-03-13T00:14:06.210Z,98000.84
2023-03-13T00:16:37.390Z,97999.81
2023-03-13T00:19:09.296Z,97988.06
2023-03-13T00:21:38.540Z,97998.03
2023-03-13T00:24:06.755Z,97989.50
2023-03-13T00:26:34.764Z,97984.31
2023-03-13T00:29:02.910Z,97982.91
2023-03-13T00:31:31.830Z,97980.44
2023-03-13T00:34:00.613Z,97972.22
2023-03-13T00:36:31.204Z,97973.06
2023-03-13T00:38:59.863Z,97967.44
2023-03-13T00:41:29.509Z,97962.13
2023-03-13T00:43:57.801Z,97966.78
2023-03-13T00:46:27.065Z,97960.50
2023-03-13T00:48:55.117Z,97957.06
2023-03-13T00:51:26.785Z,97953.91
2023-03-13T00:53:57.050Z,97954.28
2023-03-13T00:56:25.255Z,97947.47
2023-03-13T00:58:55.532Z,97942.22
2023-03-13T01:01:24.431Z,97933.38
2023-03-13T01:03:53.350Z,97937.13
2023-03-13T01:06:22.498Z,97929.78
2023-03-13T01:08:51.036Z,97929.22
2023-03-13T01:11:21.871Z,97924.06
2023-03-13T01:13:50.406Z,97920.22
2023-03-13T01:16:21.110Z,97920.59
2023-03-13T01:18:50.539Z,97913.31
2023-03-13T01:21:21.372Z,97904.91
2023-03-13T01:23:50.106Z,97898.78
2023-03-13T01:26:18.456Z,97896.53
2023-03-13T01:28:48.351Z,97889.03
2023-03-13T01:31:19.335Z,97884.50
2023-03-13T01:33:48.291Z,97884.78
2023-03-13T01:36:17.653Z,97879.25
2023-03-13T01:38:49.018Z,97882.22
2023-03-13T01:41:17.200Z,97867.88
2023-03-13T01:43:46.136Z,97864.88
2023-03-13T01:46:18.359Z,97860.72
2023-03-13T01:49:10.974Z,97850.91
2023-03-13T01:51:59.598Z,97853.06
2023-03-13T01:54:33.624Z,97835.59
2023-03-13T01:57:07.502Z,97845.25
2023-03-13T01:59:39.148Z,97842.97
2023-03-13T02:02:08.980Z,97832.69
2023-03-13T02:04:39.424Z,97832.72
2023-03-13T02:07:10.559Z,97829.13
2023-03-13T02:09:42.008Z,97821.91
2023-03-13T02:12:11.365Z,97813.41
2023-03-13T02:14:42.942Z,97820.19
2023-03-13T02:17:12.704Z,97816.44
2023-03-13T02:19:43.193Z,97808.34
2023-03-13T02:22:14.245Z,97817.09
2023-03-13T02:24:46.257Z,97806.78
2023-03-13T02:27:15.788Z,97810.63
2023-03-13T02:29:45.022Z,97813.72
2023-03-13T02:32:13.362Z,97800.63
2023-03-13T02:34:42.461Z,97790.47
2023-03-13T02:37:12.941Z,97791.69
2023-03-13T02:39:43.532Z,97798.56
2023-03-13T02:42:11.829Z,97785.16
2023-03-13T02:44:44.454Z,97790.69
2023-03-13T02:47:13.956Z,97778.34
2023-03-13T02:49:42.083Z,97779.63
2023-03-13T02:52:13.561Z,97772.31
2023-03-13T02:54:44.839Z,97766.50
2023-03-13T02:57:15.329Z,97752.50
2023-03-13T02:59:44.740Z,97764.56
2023-03-13T03:02:12.756Z,97752.31
2023-03-13T03:04:41.448Z,97752.53
2023-03-13T03:07:11.866Z,97745.84
2023-03-13T03:09:40.391Z,97743.59
2023-03-13T03:12:13.378Z,97743.56
2023-03-13T03:14:45.501Z,97744.50
2023-03-13T03:17:13.719Z,97746.63
2023-03-13T03:19:41.797Z,97741.44
2023-03-13T03:22:10.728Z,97737.84
2023-03-13T03:24:38.778Z,97740.22
2023-03-13T03:27:09.155Z,97742.16
2023-03-13T03:29:43.337Z,97711.09
2023-03-13T03:32:13.100Z,97722.75
2023-03-13T03:34:41.281Z,97730.50
2023-03-13T03:37:11.598Z,97721.56
2023-03-13T03:39:40.790Z,97720.59
2023-03-13T03:42:10.162Z,97711.78
2023-03-13T03:44:39.279Z,97715.81
2023-03-13T03:47:10.740Z,97725.09
2023-03-13T03:49:44.507Z,97713.38
2023-03-13T03:52:14.213Z,97701.78
2023-03-13T03:54:44.165Z,97706.13
2023-03-13T03:57:12.759Z,97705.91
2023-03-13T03:59:44.216Z,97694.31
2023-03-13T04:02:12.740Z,97696.75
2023-03-13T04:04:44.397Z,97694.38
2023-03-13T04:07:20.733Z,97692.13
2023-03-13T04:09:50.087Z,97691.28
2023-03-13T04:12:27.388Z,97682.69
2023-03-13T04:14:56.723Z,97687.19
2023-03-13T04:17:24.872Z,97673.91
2023-03-13T04:19:54.479Z,97668.94
2023-03-13T04:22:22.568Z,97657.44
2023-03-13T04:24:55.748Z,97657.53
2023-03-13T04:27:26.304Z,97637.00
2023-03-13T04:29:54.581Z,97647.72
2023-03-13T04:32:45.820Z,97648.34
2023-03-13T04:35:41.677Z,97640.66
2023-03-13T04:38:42.065Z,97650.81
2023-03-13T04:41:28.838Z,97645.94
2023-03-13T04:44:26.050Z,97636.09
2023-03-13T04:47:05.296Z,97636.34
2023-03-13T04:49:48.431Z,97637.16
2023-03-13T04:52:24.135Z,97631.44
2023-03-13T04:55:06.744Z,97625.66
2023-03-13T04:57:53.410Z,97630.16
2023-03-13T05:00:40.833Z,97629.94
2023-03-13T05:03:35.215Z,97629.25
2023-03-13T05:06:19.724Z,97631.53
2023-03-13T05:09:07.425Z,97618.28
2023-03-13T05:11:51.796Z,97620.69
2023-03-13T05:14:52.588Z,97619.88
2023-03-13T05:17:38.893Z,97619.75
2023-03-13T05:20:30.822Z,97621.72
2023-03-13T05:23:28.233Z,97616.13
2023-03-13T05:26:06.133Z,97614.19
2023-03-13T05:28:52.970Z,97615.59
2023-03-13T05:31:30.827Z,97608.53
2023-03-13T05:34:23.691Z,97613.44
2023-03-13T05:37:12.531Z,97619.75
2023-03-13T05:39:56.414Z,97620.81
2023-03-13T05:42:40.111Z,97615.91
2023-03-13T05:45:21.865Z,97612.69
2023-03-13T05:47:49.880Z,97610.09
2023-03-13T05:50:41.032Z,97611.19
2023-03-13T05:53:27.825Z,97617.09
2023-03-13T05:55:58.731Z,97610.63
2023-03-13T05:58:46.513Z,97609.31
2023-03-13T06:01:29.893Z,97618.25
2023-03-13T06:04:06.283Z,97606.81
2023-03-13T06:06:36.823Z,97609.31
2023-03-13T06:09:06.013Z,97614.81
2023-03-13T06:11:35.453Z,97615.06
2023-03-13T06:14:07.625Z,97608.50
2023-03-13T06:16:41.977Z,97611.25
2023-03-13T06:19:16.349Z,97605.25
2023-03-13T06:21:44.566Z,97587.88
2023-03-13T06:24:14.824Z,97600.69
2023-03-13T06:26:45.310Z,97593.31
2023-03-13T06:29:14.700Z,97604.66
2023-03-13T06:31:43.013Z,97599.28
2023-03-13T06:34:12.221Z,97604.19
2023-03-13T06:36:40.830Z,97619.44
2023-03-13T06:39:09.171Z,97614.50
2023-03-13T06:41:39.296Z,97613.47
2023-03-13T06:44:07.304Z,97619.19
2023-03-13T06:46:36.761Z,97623.81
2023-03-13T06:49:05.868Z,97622.22
2023-03-13T06:51:34.160Z,97640.91
2023-03-13T06:54:03.088Z,97638.50
2023-03-13T06:56:31.093Z,97635.78
2023-03-13T06:59:00.110Z,97638.25
2023-03-13T07:01:30.832Z,97630.09
2023-03-13T07:04:00.259Z,97644.22
2023-03-13T07:06:28.284Z,97635.25
2023-03-13T07:08:56.535Z,97635.78
2023-03-13T07:11:25.854Z,97625.44
2023-03-13T07:14:06.583Z,97620.31
2023-03-13T07:16:43.368Z,97628.97
2023-03-13T07:19:12.951Z,97633.09
2023-03-13T07:21:41.023Z,97629.84
2023-03-13T07:24:09.460Z,97625.72
2023-03-13T07:26:37.604Z,97624.94
2023-03-13T07:29:07.891Z,97625.47
2023-03-13T07:31:35.923Z,97609.94
2023-03-13T07:34:04.011Z,97606.59
2023-03-13T07:36:35.382Z,97597.16
2023-03-13T07:39:03.570Z,97599.72
2023-03-13T07:41:33.953Z,97592.25
2023-03-13T07:44:02.502Z,97600.34
2023-03-13T07:46:30.502Z,97596.00
2023-03-13T07:48:58.537Z,97588.19
2023-03-13T07:51:42.150Z,97592.41
2023-03-13T07:54:12.631Z,97583.06
2023-03-13T07:56:41.147Z,97577.78
2023-03-13T07:59:09.524Z,97560.72
2023-03-13T08:01:37.628Z,97559.53
2023-03-13T08:04:06.121Z,97566.50
2023-03-13T08:06:35.442Z,97558.44
2023-03-13T08:09:03.495Z,97568.31
2023-03-13T08:11:33.029Z,97563.88
2023-03-13T08:14:01.155Z,97555.19
2023-03-13T08:16:30.285Z,97559.13
2023-03-13T08:18:59.091Z,97552.19
2023-03-13T08:21:28.373Z,97554.88
2023-03-13T08:23:57.701Z,97562.06
2023-03-13T08:26:27.281Z,97572.06
2023-03-13T08:28:57.491Z,97572.56
2023-03-13T08:31:26.874Z,97571.81
2023-03-13T08:33:55.063Z,97568.31
2023-03-13T08:36:25.081Z,97577.22
2023-03-13T08:38:54.238Z,97576.34
2023-03-13T08:41:23.122Z,97581.69
2023-03-13T08:43:53.293Z,97572.28
2023-03-13T08:46:23.450Z,97570.44
2023-03-13T08:48:51.875Z,97565.13
2023-03-13T08:51:20.337Z,97565.75
2023-03-13T08:53:48.348Z,97570.06
2023-03-13T08:56:17.072Z,97565.41
2023-03-13T08:58:45.452Z,97569.22
2023-03-13T09:01:14.511Z,97578.41
2023-03-13T09:03:44.294Z,97578.69
2023-03-13T09:06:13.012Z,97582.94
2023-03-13T09:08:41.868Z,97579.91
2023-03-13T09:11:10.971Z,97569.78
2023-03-13T09:13:40.216Z,97564.06
2023-03-13T09:16:09.210Z,97557.78
2023-03-13T09:18:37.744Z,97557.88
2023-03-13T09:21:08.899Z,97554.44
2023-03-13T09:23:39.014Z,97573.13
2023-03-13T09:26:07.492Z,97561.44
2023-03-13T09:28:35.747Z,97577.41
2023-03-13T09:31:10.234Z,97568.16
2023-03-13T09:33:38.974Z,97576.91
2023-03-13T09:36:08.873Z,97575.69
2023-03-13T09:38:37.263Z,97559.97
2023-03-13T09:41:16.367Z,97547.84
2023-03-13T09:43:48.994Z,97545.72
2023-03-13T09:46:19.895Z,97530.81
2023-03-13T09:48:49.912Z,97545.06
2023-03-13T09:51:22.491Z,97550.78
2023-03-13T09:53:53.159Z,97558.00
2023-03-13T09:56:24.336Z,97563.38
2023-03-13T09:58:56.500Z,97561.38
2023-03-13T10:01:27.034Z,97547.88
2023-03-13T10:04:02.209Z,97556.00
2023-03-13T10:06:35.278Z,97551.28
2023-03-13T10:09:04.176Z,97547.88
2023-03-13T10:11:39.159Z,97544.28
2023-03-13T10:14:12.181Z,97545.75
2023-03-13T10:16:45.671Z,97544.72
2023-03-13T10:19:16.741Z,97543.31
2023-03-13T10:21:48.321Z,97539.88
2023-03-13T10:24:19.282Z,97532.91
2023-03-13T10:26:49.460Z,97530.31
2023-03-13T10:29:22.693Z,97523.91
2023-03-13T10:31:56.271Z,97518.50
2023-03-13T10:34:24.912Z,97511.13
2023-03-13T10:36:58.867Z,97513.94
2023-03-13T10:39:28.010Z,97513.41
2023-03-13T10:42:00.930Z,97509.13
2023-03-13T10:44:33.419Z,97505.75
2023-03-13T10:47:02.596Z,97493.97
2023-03-13T10:49:31.924Z,97492.59
2023-03-13T10:52:02.324Z,97490.59
2023-03-13T10:54:31.551Z,97478.03
2023-03-13T10:57:10.658Z,97477.56
2023-03-13T10:59:41.283Z,97482.41
2023-03-13T11:02:21.990Z,97481.66
2023-03-13T11:04:53.821Z,97473.28
2023-03-13T11:07:26.788Z,97479.28
2023-03-13T11:10:02.970Z,97474.31
2023-03-13T11:12:34.631Z,97467.84
2023-03-13T11:15:03.722Z,97459.56
2023-03-13T11:17:35.216Z,97458.03
2023-03-13T11:20:09.312Z,97452.84
2023-03-13T11:22:44.406Z,97450.94
2023-03-13T11:25:21.490Z,97440.38
2023-03-13T11:27:52.827Z,97440.00
2023-03-13T11:30:29.047Z,97432.03
2023-03-13T11:33:01.553Z,97423.16
2023-03-13T11:35:37.696Z,97413.59
2023-03-13T11:38:08.956Z,97419.94
2023-03-13T11:40:40.251Z,97406.97
2023-03-13T11:43:25.167Z,97406.72
2023-03-13T11:46:09.783Z,97396.59
2023-03-13T11:48:52.857Z,97392.50
2023-03-13T11:51:25.306Z,97385.25
2023-03-13T11:54:05.237Z,97380.31
2023-03-13T11:56:38.922Z,97357.97
2023-03-13T11:59:16.700Z,97352.00
2023-03-13T12:01:47.768Z,97359.22
2023-03-13T12:04:18.489Z,97358.78
2023-03-13T12:06:48.177Z,97357.16
2023-03-13T12:09:22.992Z,97343.50
2023-03-13T12:11:55.169Z,97338.19
2023-03-13T12:14:26.380Z,97322.31
2023-03-13T12:16:59.020Z,97316.81
2023-03-13T12:19:31.188Z,97299.69
2023-03-13T12:22:05.555Z,97298.06
2023-03-13T12:24:37.434Z,97297.88
2023-03-13T12:27:10.971Z,97281.03
2023-03-13T12:29:44.520Z,97281.59
2023-03-13T12:32:15.701Z,97266.19
2023-03-13T12:34:49.831Z,97267.06
2023-03-13T12:37:22.418Z,97252.69
2023-03-13T12:39:54.808Z,97241.75
2023-03-13T12:42:32.028Z,97235.97
2023-03-13T12:45:00.383Z,97214.31
2023-03-13T12:47:32.834Z,97216.47
2023-03-13T12:50:11.165Z,97208.97
2023-03-13T12:52:48.468Z,97204.19
2023-03-13T12:55:31.424Z,97201.31
2023-03-13T12:58:11.269Z,97192.13
2023-03-13T13:00:42.035Z,97195.53
2023-03-13T13:03:16.546Z,97189.59
2023-03-13T13:05:59.369Z,97187.13
2023-03-13T13:08:28.297Z,97171.78
2023-03-13T13:11:16.323Z,97175.34
2023-03-13T13:13:45.767Z,97166.47
2023-03-13T13:16:18.406Z,97159.06
2023-03-13T13:18:49.005Z,97147.16
2023-03-13T13:21:21.233Z,97133.94
2023-03-13T13:23:53.843Z,97137.00
2023-03-13T13:26:37.478Z,97116.06
2023-03-13T13:29:20.436Z,97113.66
2023-03-13T13:32:00.169Z,97107.00
2023-03-13T13:34:49.221Z,97111.69
2023-03-13T13:37:28.945Z,97077.53
2023-03-13T13:40:17.838Z,97098.00
2023-03-13T13:42:50.438Z,97080.72
2023-03-13T13:45:25.343Z,97094.19
2023-03-13T13:48:10.324Z,97070.03
2023-03-13T13:50:39.734Z,97073.47
2023-03-13T13:53:31.642Z,97073.16
2023-03-13T13:55:59.755Z,97052.38
2023-03-13T13:58:29.822Z,97059.41
2023-03-13T14:01:00.608Z,97054.38
2023-03-13T14:03:29.404Z,97052.81
2023-03-13T14:06:02.669Z,97042.13
2023-03-13T14:08:31.668Z,97036.50
2023-03-13T14:11:17.649Z,97018.50
2023-03-13T14:13:45.714Z,97014.25
2023-03-13T14:16:24.220Z,97021.44
2023-03-13T14:18:55.024Z,97002.06
2023-03-13T14:21:24.981Z,97010.28
2023-03-13T14:23:53.019Z,97008.63
2023-03-13T14:26:22.067Z,96999.44
2023-03-13T14:28:51.459Z,96987.56
2023-03-13T14:31:23.466Z,96988.19
2023-03-13T14:33:51.720Z,96976.94
2023-03-13T14:36:20.480Z,96982.91
2023-03-13T14:38:54.599Z,96969.28
2023-03-13T14:41:29.335Z,96970.25
2023-03-13T14:44:02.627Z,96958.72
2023-03-13T14:46:32.337Z,96948.31
2023-03-13T14:49:06.975Z,96942.94
2023-03-13T14:51:39.266Z,96940.22
2023-03-13T14:54:25.355Z,96931.03
2023-03-13T14:57:03.979Z,96920.69
2023-03-13T14:59:32.834Z,96905.88
2023-03-13T15:02:05.429Z,96890.75
2023-03-13T15:04:54.073Z,96890.38
2023-03-13T15:07:23.399Z,96887.63
2023-03-13T15:09:53.450Z,96870.66
2023-03-13T15:12:23.951Z,96856.66
2023-03-13T15:14:53.556Z,96855.41
2023-03-13T15:17:23.960Z,96843.47
2023-03-13T15:19:54.162Z,96840.72
2023-03-13T15:22:28.950Z,96829.25
2023-03-13T15:25:07.680Z,96828.69
2023-03-13T15:27:37.067Z,96823.19
2023-03-13T15:30:06.627Z,96812.75
2023-03-13T15:32:36.930Z,96817.28
2023-03-13T15:35:22.676Z,96818.00
2023-03-13T15:37:51.622Z,96804.94
2023-03-13T15:40:23.724Z,96808.00
2023-03-13T15:42:52.169Z,96789.44
2023-03-13T15:45:20.679Z,96787.66
2023-03-13T15:47:51.511Z,96786.00
2023-03-13T15:50:25.501Z,96770.59
2023-03-13T15:52:54.232Z,96771.81
2023-03-13T15:55:30.183Z,96755.06
2023-03-13T15:57:58.697Z,96741.47
2023-03-13T16:00:28.264Z,96741.63
2023-03-13T16:02:56.712Z,96738.25
2023-03-13T16:05:25.024Z,96734.09
2023-03-13T16:07:53.382Z,96733.41
2023-03-13T16:10:25.974Z,96726.28
2023-03-13T16:12:54.844Z,96721.69
2023-03-13T16:15:23.716Z,96726.41
2023-03-13T16:17:54.295Z,96727.56
2023-03-13T16:20:26.433Z,96717.56
2023-03-13T16:22:54.755Z,96718.94
2023-03-13T16:25:25.220Z,96713.53
2023-03-13T16:27:56.192Z,96710.88
2023-03-13T16:30:27.162Z,96711.41
2023-03-13T16:32:55.616Z,96709.72
2023-03-13T16:35:24.167Z,96695.25
2023-03-13T16:37:55.085Z,96700.19
2023-03-13T16:40:30.370Z,96683.16
2023-03-13T16:42:58.684Z,96697.34
2023-03-13T16:45:27.409Z,96697.28
2023-03-13T16:47:55.798Z,96702.75
2023-03-13T16:50:29.384Z,96699.28
2023-03-13T16:52:57.938Z,96694.19
2023-03-13T16:55:30.455Z,96674.16
2023-03-13T16:57:59.860Z,96676.25
2023-03-13T17:00:31.824Z,96676.25
2023-03-13T17:03:01.449Z,96658.69
2023-03-13T17:05:30.203Z,96667.44
2023-03-13T17:08:00.816Z,96659.53
2023-03-13T17:10:32.544Z,96655.88
2023-03-13T17:13:05.470Z,96657.00
2023-03-13T17:15:36.386Z,96651.84
2023-03-13T17:18:05.206Z,96645.88
2023-03-13T17:20:33.532Z,96633.44
2023-03-13T17:23:02.102Z,96640.06
2023-03-13T17:25:31.807Z,96633.72
2023-03-13T17:28:00.190Z,96628.34
2023-03-13T17:30:32.252Z,96633.16
2023-03-13T17:33:00.950Z,96628.66
2023-03-13T17:35:31.856Z,96619.94
2023-03-13T17:38:00.136Z,96627.88
2023-03-13T17:40:32.289Z,96627.38
2023-03-13T17:43:00.643Z,96622.75
2023-03-13T17:45:30.448Z,96618.78
2023-03-13T17:47:58.788Z,96610.47
2023-03-13T17:50:30.079Z,96595.97
2023-03-13T17:52:58.349Z,96594.50
2023-03-13T17:55:26.670Z,96593.44
2023-03-13T17:57:56.283Z,96585.44
2023-03-13T18:00:28.877Z,96603.94
2023-03-13T18:02:59.434Z,96626.25
2023-03-13T18:05:27.938Z,96624.06
2023-03-13T18:07:57.340Z,96653.84
2023-03-13T18:10:28.575Z,96596.91
2023-03-13T18:13:03.434Z,96585.09
2023-03-13T18:15:31.749Z,96652.44
2023-03-13T18:18:00.162Z,96718.31
2023-03-13T18:20:32.965Z,96746.34
2023-03-13T18:23:01.244Z,63131.69
2023-03-13T18:25:30.719Z,63131.69
2023-03-13T18:28:00.670Z,63131.69
2023-03-13T18:30:29.145Z,63131.69
2023-03-13T18:32:57.553Z,63131.69
2023-03-13T18:35:26.167Z,63131.69
2023-03-13T18:37:54.435Z,63131.69
2023-03-13T18:40:24.953Z,63131.69
2023-03-13T18:42:53.373Z,63131.69
2023-03-13T18:45:26.876Z,63131.69
2023-03-13T18:47:55.273Z,63131.69
2023-03-13T18:50:28.034Z,63131.69
2023-03-13T18:52:58.256Z,63131.69
2023-03-13T18:55:28.787Z,63131.69
2023-03-13T18:57:57.654Z,63131.69
2023-03-13T19:00:29.697Z,63131.69
2023-03-13T19:02:58.104Z,63131.69
2023-03-13T19:05:26.563Z,63131.69
2023-03-13T19:07:54.919Z,63131.69
2023-03-13T19:10:26.338Z,63131.69
2023-03-13T19:12:56.708Z,63131.69
2023-03-13T19:15:29.852Z,63131.69
2023-03-13T19:18:02.700Z,63131.69
2023-03-13T19:20:31.646Z,63131.69
2023-03-13T19:23:00.750Z,63131.69
2023-03-13T19:25:29.842Z,63131.69
2023-03-13T19:27:58.130Z,63131.69
2023-03-13T19:30:30.023Z,63131.69
2023-03-13T19:32:58.725Z,63131.69
2023-03-13T19:35:27.247Z,63131.69
2023-03-13T19:37:56.086Z,63131.69
2023-03-13T19:40:28.373Z,63131.69
2023-03-13T19:42:58.846Z,63131.69
2023-03-13T19:45:27.891Z,63131.69
2023-03-13T19:47:59.986Z,63131.69
2023-03-13T19:50:31.626Z,63131.69
2023-03-13T19:53:00.215Z,63131.69
2023-03-13T19:55:28.731Z,63131.69
2023-03-13T19:57:57.067Z,63131.69
2023-03-13T20:00:27.859Z,63131.69
2023-03-13T20:02:56.321Z,63131.69
2023-03-13T20:05:27.872Z,63131.69
2023-03-13T20:07:57.367Z,63131.69
2023-03-13T20:10:25.933Z,63131.69
2023-03-13T20:12:54.548Z,63131.69
2023-03-13T20:15:22.904Z,63131.69
2023-03-13T20:17:51.305Z,63131.69
2023-03-13T20:20:20.499Z,63131.69
2023-03-13T20:22:50.186Z,63131.69
2023-03-13T20:25:20.627Z,63131.69
2023-03-13T20:27:49.061Z,63131.69
2023-03-13T20:30:17.860Z,63131.69
2023-03-13T20:32:58.531Z,63131.69
2023-03-13T20:35:28.956Z,63131.69
2023-03-13T20:38:00.745Z,63131.69
2023-03-13T20:40:29.125Z,63131.69
2023-03-13T20:42:59.054Z,63131.69
2023-03-13T20:45:28.535Z,63131.69
2023-03-13T20:47:57.023Z,63131.69
2023-03-13T20:50:25.811Z,63131.69
2023-03-13T20:52:55.560Z,63131.69
2023-03-13T20:55:30.311Z,63131.69
2023-03-13T20:57:58.706Z,63131.69
2023-03-13T21:00:27.437Z,63131.69
2023-03-13T21:02:55.955Z,63131.69
2023-03-13T21:05:24.432Z,63131.69
2023-03-13T21:07:53.135Z,63131.69
2023-03-13T21:10:25.218Z,63131.69
2023-03-13T21:12:58.288Z,63131.69
2023-03-13T21:15:29.122Z,63131.69
2023-03-13T21:17:57.523Z,63131.69
2023-03-13T21:20:26.780Z,63131.69
2023-03-13T21:22:55.205Z,63131.69
2023-03-13T21:25:24.084Z,63131.69
2023-03-13T21:27:52.481Z,63131.69
2023-03-13T21:30:22.731Z,63131.69
2023-03-13T21:32:52.916Z,63131.69
2023-03-13T21:35:21.447Z,63131.69
2023-03-13T21:37:52.211Z,63131.69
2023-03-13T21:40:20.536Z,63131.69
2023-03-13T21:42:48.883Z,63131.69
2023-03-13T21:45:17.184Z,63131.69
2023-03-13T21:47:48.358Z,63131.69
2023-03-13T21:50:16.646Z,63131.69
2023-03-13T21:52:45.538Z,63131.69
2023-03-13T21:55:14.163Z,63131.69
2023-03-13T21:57:45.898Z,63131.69
2023-03-13T22:02:40.953Z,96857.25
2023-03-13T22:05:09.928Z,96843.50
2023-03-13T22:07:38.256Z,96831.31
2023-03-13T22:10:07.416Z,96824.78
2023-03-13T22:12:37.174Z,96839.66
2023-03-13T22:15:09.377Z,96835.84
2023-03-13T22:17:37.692Z,96821.75
2023-03-13T22:20:10.371Z,96826.69
2023-03-13T22:22:38.705Z,96820.81
2023-03-13T22:25:07.688Z,96812.91
2023-03-13T22:27:36.152Z,96801.53
2023-03-13T22:30:05.200Z,96797.00
2023-03-13T22:32:33.691Z,96804.88
2023-03-13T22:35:02.214Z,96806.22
2023-03-13T22:37:31.964Z,96800.81
2023-03-13T22:40:00.292Z,96823.25
2023-03-13T22:42:31.009Z,96825.94
2023-03-13T22:44:59.346Z,96810.53
2023-03-13T22:47:27.668Z,96782.34
2023-03-13T22:49:56.088Z,96781.88
2023-03-13T22:52:29.045Z,96779.97
2023-03-13T22:54:59.091Z,96781.09
2023-03-13T22:57:29.063Z,96794.59
2023-03-13T22:59:59.094Z,96801.59
2023-03-13T23:02:28.167Z,96804.88
2023-03-13T23:04:58.446Z,96806.75
2023-03-13T23:07:28.345Z,96811.63
2023-03-13T23:09:57.030Z,63131.69
2023-03-13T23:12:30.670Z,63131.69
2023-03-13T23:15:00.441Z,63131.69
2023-03-13T23:17:31.329Z,63131.69
2023-03-13T23:20:01.125Z,63131.69
2023-03-13T23:22:32.770Z,63131.69
2023-03-13T23:25:01.276Z,63131.69
2023-03-13T23:27:31.776Z,63131.69
2023-03-13T23:30:04.039Z,63131.69
2023-03-13T23:32:36.449Z,63131.69
2023-03-13T23:35:05.411Z,63131.69
2023-03-13T23:37:34.035Z,63131.69
2023-03-13T23:40:04.746Z,63131.69
2023-03-13T23:42:34.427Z,63131.69
2023-03-13T23:45:05.235Z,63131.69
2023-03-13T23:47:34.396Z,63131.69
2023-03-13T23:50:02.846Z,63131.69
2023-03-13T23:52:31.183Z,63131.69
2023-03-13T23:54:59.876Z,63131.69
2023-03-13T23:57:28.162Z,63131.69
2023-03-13T23:59:57.886Z,63131.69
